createdAt,value
2018-03-14T00:01:20.071Z,7.73
2018-03-14T00:03:47.563Z,7.47
2018-03-14T00:06:15.141Z,8.97
2018-03-14T00:08:43.370Z,8.03
2018-03-14T00:11:10.843Z,8.90
2018-03-14T00:13:38.307Z,8.20
2018-03-14T00:16:05.789Z,9.07
2018-03-14T00:18:33.262Z,9.00
2018-03-14T00:21:00.736Z,9.30
2018-03-14T00:23:28.189Z,9.03
2018-03-14T00:25:55.675Z,9.77
2018-03-14T00:28:23.144Z,10.50
2018-03-14T00:30:51.328Z,10.83
2018-03-14T00:33:18.852Z,9.90
2018-03-14T00:35:46.346Z,9.80
2018-03-14T00:38:14.595Z,11.37
2018-03-14T00:40:42.075Z,13.90
2018-03-14T00:43:09.540Z,12.13
2018-03-14T00:45:37.040Z,13.43
2018-03-14T00:48:04.505Z,11.40
2018-03-14T00:50:31.978Z,11.30
2018-03-14T00:52:59.459Z,11.77
2018-03-14T00:55:26.936Z,10.90
2018-03-14T00:57:54.421Z,12.20
2018-03-14T01:00:21.883Z,11.10
2018-03-14T01:02:49.387Z,11.27
2018-03-14T01:05:17.672Z,10.43
2018-03-14T01:07:45.154Z,11.77
2018-03-14T01:10:12.645Z,11.07
2018-03-14T01:12:40.120Z,9.87
2018-03-14T01:15:07.608Z,9.80
2018-03-14T01:17:35.130Z,10.03
2018-03-14T01:20:02.599Z,10.17
2018-03-14T01:22:30.060Z,9.27
2018-03-14T01:24:57.529Z,9.77
2018-03-14T01:27:25.004Z,9.93
2018-03-14T01:29:52.478Z,9.40
2018-03-14T01:32:19.944Z,10.63
2018-03-14T01:34:47.419Z,10.00
2018-03-14T01:37:14.879Z,11.17
2018-03-14T01:39:42.351Z,11.37
2018-03-14T01:42:09.808Z,9.67
2018-03-14T01:44:37.279Z,8.67
2018-03-14T01:47:04.734Z,9.63
2018-03-14T01:49:32.216Z,10.13
2018-03-14T01:51:59.679Z,9.50
2018-03-14T01:54:27.164Z,10.33
2018-03-14T01:56:54.622Z,9.83
2018-03-14T01:59:22.086Z,10.33
2018-03-14T02:01:50.363Z,9.80
2018-03-14T02:04:17.846Z,10.13
2018-03-14T02:06:45.330Z,10.50
2018-03-14T02:09:12.797Z,11.83
2018-03-14T02:11:40.290Z,10.33
2018-03-14T02:14:07.807Z,11.40
2018-03-14T02:16:35.276Z,9.03
2018-03-14T02:19:02.744Z,9.40
2018-03-14T02:21:30.267Z,8.77
2018-03-14T02:23:57.749Z,7.57
2018-03-14T02:26:25.226Z,7.53
2018-03-14T02:28:52.688Z,7.90
2018-03-14T02:31:20.150Z,7.47
2018-03-14T02:33:48.401Z,7.10
2018-03-14T02:36:27.516Z,6.53
2018-03-14T02:38:54.992Z,7.20
2018-03-14T02:41:22.452Z,8.00
2018-03-14T02:43:49.935Z,8.30
2018-03-14T02:46:17.405Z,8.10
2018-03-14T02:48:44.855Z,7.70
2018-03-14T02:51:12.303Z,8.03
2018-03-14T02:53:39.766Z,6.90
2018-03-14T02:56:07.219Z,8.87
2018-03-14T02:58:34.716Z,6.97
2018-03-14T03:01:02.171Z,8.43
2018-03-14T03:03:30.415Z,7.27
2018-03-14T03:05:57.863Z,7.27
2018-03-14T03:08:25.311Z,7.27
2018-03-14T03:10:52.775Z,8.37
2018-03-14T03:13:20.227Z,7.37
2018-03-14T03:15:47.690Z,6.97
2018-03-14T03:18:15.147Z,7.17
2018-03-14T03:20:42.616Z,7.17
2018-03-14T03:23:10.072Z,6.37
2018-03-14T03:25:37.548Z,6.83
2018-03-14T03:28:05.794Z,6.50
2018-03-14T03:30:33.306Z,6.67
2018-03-14T03:33:00.787Z,6.43
2018-03-14T03:35:28.261Z,7.03
2018-03-14T03:37:55.718Z,6.77
2018-03-14T03:40:23.173Z,6.77
2018-03-14T03:42:50.632Z,7.27
2018-03-14T03:45:18.079Z,5.57
2018-03-14T03:47:45.546Z,8.03
2018-03-14T03:50:13.042Z,7.30
2018-03-14T03:52:40.533Z,6.70
2018-03-14T03:55:07.988Z,6.53
2018-03-14T03:57:35.447Z,7.30
2018-03-14T04:00:02.904Z,7.83
2018-03-14T04:02:30.381Z,8.00
2018-03-14T04:04:57.835Z,7.90
2018-03-14T04:07:25.287Z,8.47
2018-03-14T04:09:52.751Z,6.90
2018-03-14T04:12:20.228Z,6.90
2018-03-14T04:14:47.687Z,7.47
2018-03-14T04:17:15.137Z,7.37
2018-03-14T04:19:42.603Z,7.30
2018-03-14T04:22:10.056Z,8.33
2018-03-14T04:24:37.507Z,7.90
2018-03-14T04:27:04.962Z,8.50
2018-03-14T04:29:32.510Z,8.73
2018-03-14T04:31:59.971Z,8.17
2018-03-14T04:34:27.423Z,8.53
2018-03-14T04:36:54.879Z,7.27
2018-03-14T04:39:22.339Z,8.67
2018-03-14T04:41:49.878Z,8.43
2018-03-14T04:44:17.346Z,9.47
2018-03-14T04:46:44.786Z,8.27
2018-03-14T04:49:12.259Z,10.67
2018-03-14T04:51:39.723Z,9.83
2018-03-14T04:54:07.182Z,9.43
2018-03-14T04:56:34.652Z,8.73
2018-03-14T04:59:02.094Z,8.27
2018-03-14T05:01:29.554Z,8.80
2018-03-14T05:03:57.020Z,10.20
2018-03-14T05:06:24.479Z,9.60
2018-03-14T05:08:51.959Z,10.00
2018-03-14T05:11:20.187Z,8.73
2018-03-14T05:13:47.643Z,8.90
2018-03-14T05:16:15.871Z,9.83
2018-03-14T05:18:44.098Z,9.07
2018-03-14T05:21:11.632Z,10.17
2018-03-14T05:23:39.099Z,10.00
2018-03-14T05:26:06.570Z,9.77
2018-03-14T05:28:34.027Z,11.73
2018-03-14T05:31:01.515Z,9.63
2018-03-14T05:33:28.970Z,10.93
2018-03-14T05:35:56.415Z,11.17
2018-03-14T05:38:23.878Z,10.50
2018-03-14T05:40:51.327Z,10.17
2018-03-14T05:43:18.795Z,9.87
2018-03-14T05:45:46.255Z,14.07
2018-03-14T05:48:14.487Z,10.67
2018-03-14T05:50:41.943Z,12.03
2018-03-14T05:53:09.427Z,11.87
2018-03-14T05:55:36.883Z,14.20
2018-03-14T05:58:04.368Z,10.73
2018-03-14T06:00:31.823Z,10.77
2018-03-14T06:02:59.299Z,11.27
2018-03-14T06:05:26.757Z,10.70
2018-03-14T06:07:54.229Z,10.77
2018-03-14T06:10:21.690Z,11.07
2018-03-14T06:12:49.208Z,12.93
2018-03-14T06:15:17.427Z,11.83
2018-03-14T06:17:44.910Z,14.03
2018-03-14T06:20:12.366Z,12.17
2018-03-14T06:22:39.876Z,10.53
2018-03-14T06:25:07.329Z,11.93
2018-03-14T06:27:34.784Z,10.70
2018-03-14T06:30:02.324Z,10.83
2018-03-14T06:32:30.543Z,10.20
2018-03-14T06:34:58.059Z,9.27
2018-03-14T06:37:25.514Z,10.40
2018-03-14T06:39:52.978Z,9.53
2018-03-14T06:42:20.438Z,9.10
2018-03-14T06:44:47.897Z,9.87
2018-03-14T06:47:15.351Z,10.10
2018-03-14T06:49:42.829Z,11.47
2018-03-14T06:52:10.304Z,10.30
2018-03-14T06:54:37.768Z,8.77
2018-03-14T06:57:05.221Z,9.50
2018-03-14T06:59:44.291Z,10.20
2018-03-14T07:02:23.521Z,9.13
2018-03-14T07:05:02.772Z,8.87
2018-03-14T07:07:30.223Z,8.10
2018-03-14T07:09:57.691Z,9.03
2018-03-14T07:12:25.143Z,8.47
2018-03-14T07:14:52.603Z,9.30
2018-03-14T07:17:20.067Z,10.03
2018-03-14T07:19:47.529Z,8.97
2018-03-14T07:22:14.999Z,9.77
2018-03-14T07:24:42.451Z,10.93
2018-03-14T07:27:09.911Z,10.07
2018-03-14T07:29:37.368Z,9.77
2018-03-14T07:32:04.839Z,10.77
2018-03-14T07:34:32.307Z,10.90
2018-03-14T07:37:00.154Z,10.07
2018-03-14T07:39:27.603Z,12.93
2018-03-14T07:41:55.070Z,11.53
2018-03-14T07:44:22.520Z,11.57
2018-03-14T07:46:49.983Z,12.07
2018-03-14T07:49:17.440Z,11.47
2018-03-14T07:51:44.916Z,10.40
2018-03-14T07:54:12.373Z,9.87
2018-03-14T07:56:39.832Z,9.40
2018-03-14T07:59:08.244Z,9.83
2018-03-14T08:01:36.541Z,9.50
2018-03-14T08:04:04.008Z,9.37
2018-03-14T08:06:31.483Z,9.87
2018-03-14T08:08:58.967Z,10.17
2018-03-14T08:11:26.433Z,9.60
2018-03-14T08:13:54.036Z,10.80
2018-03-14T08:16:22.150Z,9.33
2018-03-14T08:18:49.643Z,9.97
2018-03-14T08:21:17.100Z,9.80
2018-03-14T08:23:44.572Z,9.77
2018-03-14T08:26:12.028Z,11.30
2018-03-14T08:28:39.503Z,9.20
2018-03-14T08:31:06.967Z,10.37
2018-03-14T08:33:34.455Z,9.57
2018-03-14T08:36:01.983Z,10.27
2018-03-14T08:38:29.447Z,10.47
2018-03-14T08:40:56.915Z,9.30
2018-03-14T08:43:24.391Z,11.50
2018-03-14T08:45:51.851Z,11.03
2018-03-14T08:48:19.338Z,10.50
2018-03-14T08:50:46.834Z,10.97
2018-03-14T08:53:14.306Z,11.77
2018-03-14T08:55:41.784Z,10.20
2018-03-14T08:58:09.269Z,10.63
2018-03-14T09:00:36.738Z,11.37
2018-03-14T09:03:04.207Z,11.27
2018-03-14T09:05:31.692Z,10.80
2018-03-14T09:07:59.167Z,11.77
2018-03-14T09:10:26.637Z,10.90
2018-03-14T09:12:54.863Z,11.27
2018-03-14T09:15:22.344Z,10.73
2018-03-14T09:17:49.817Z,11.93
2018-03-14T09:20:17.310Z,14.07
2018-03-14T09:22:44.788Z,12.13
2018-03-14T09:25:12.252Z,13.00
2018-03-14T09:27:39.722Z,12.97
2018-03-14T09:30:07.178Z,13.27
2018-03-14T09:32:34.649Z,13.13
2018-03-14T09:35:02.106Z,12.13
2018-03-14T09:37:29.579Z,11.53
2018-03-14T09:39:57.824Z,12.03
2018-03-14T09:42:25.304Z,12.20
2018-03-14T09:44:52.767Z,13.17
2018-03-14T09:47:20.263Z,15.60
2018-03-14T09:49:47.747Z,13.53
2018-03-14T09:52:15.223Z,13.07
2018-03-14T09:54:42.691Z,12.33
2018-03-14T09:57:10.191Z,11.97
2018-03-14T09:59:38.407Z,12.07
2018-03-14T10:02:05.867Z,11.67
2018-03-14T10:04:33.344Z,11.80
2018-03-14T10:07:00.864Z,13.47
2018-03-14T10:09:28.356Z,11.23
2018-03-14T10:11:56.592Z,14.00
2018-03-14T10:14:24.068Z,13.13
2018-03-14T10:16:51.550Z,15.67
2018-03-14T10:19:19.053Z,12.87
2018-03-14T10:21:46.509Z,12.67
2018-03-14T10:24:13.977Z,15.77
2018-03-14T10:26:41.450Z,16.60
2018-03-14T10:29:08.975Z,11.43
2018-03-14T10:31:36.412Z,11.63
2018-03-14T10:34:03.876Z,10.77
2018-03-14T10:36:31.352Z,11.97
2018-03-14T10:38:58.845Z,12.43
2018-03-14T10:41:26.328Z,11.33
2018-03-14T10:43:53.780Z,13.33
2018-03-14T10:46:21.254Z,11.77
2018-03-14T10:48:48.728Z,10.80
2018-03-14T10:51:16.207Z,11.70
2018-03-14T10:53:43.710Z,13.47
2018-03-14T10:56:11.224Z,11.43
2018-03-14T10:58:38.725Z,13.70
2018-03-14T11:01:10.128Z,11.90
2018-03-14T11:03:43.131Z,11.30
2018-03-14T11:06:10.612Z,11.57
2018-03-14T11:08:38.067Z,10.50
2018-03-14T11:11:05.540Z,11.50
2018-03-14T11:13:33.014Z,11.90
2018-03-14T11:16:00.472Z,17.33
2018-03-14T11:18:27.956Z,12.17
2018-03-14T11:20:55.428Z,13.90
2018-03-14T11:23:22.944Z,13.27
2018-03-14T11:25:50.422Z,11.50
2018-03-14T11:28:17.927Z,13.27
2018-03-14T11:30:45.392Z,11.00
2018-03-14T11:33:12.894Z,11.20
2018-03-14T11:35:40.355Z,10.90
2018-03-14T11:38:07.870Z,11.53
2018-03-14T11:40:36.102Z,10.20
2018-03-14T11:43:03.581Z,12.67
2018-03-14T11:45:31.084Z,13.73
2018-03-14T11:47:58.553Z,12.80
2018-03-14T11:50:26.030Z,13.90
2018-03-14T11:52:53.495Z,16.23
2018-03-14T11:55:20.985Z,11.27
2018-03-14T11:57:49.227Z,14.13
2018-03-14T12:00:16.703Z,11.97
2018-03-14T12:02:44.175Z,12.63
2018-03-14T12:05:11.651Z,10.47
2018-03-14T12:07:39.117Z,14.20
2018-03-14T12:10:06.629Z,13.83
2018-03-14T12:12:34.071Z,12.27
2018-03-14T12:15:01.600Z,10.73
2018-03-14T12:17:29.075Z,10.90
2018-03-14T12:19:56.563Z,11.90
2018-03-14T12:22:29.594Z,10.90
2018-03-14T12:24:57.087Z,11.13
2018-03-14T12:27:24.559Z,10.27
2018-03-14T12:29:52.064Z,9.10
2018-03-14T12:32:19.506Z,10.73
2018-03-14T12:34:47.126Z,9.77
2018-03-14T12:37:14.568Z,12.43
2018-03-14T12:39:42.044Z,10.57
2018-03-14T12:42:09.513Z,14.37
2018-03-14T12:44:37.007Z,10.23
2018-03-14T12:47:04.483Z,10.03
2018-03-14T12:49:31.953Z,9.73
2018-03-14T12:51:59.426Z,9.70
2018-03-14T12:54:26.908Z,11.07
2018-03-14T12:56:54.385Z,11.60
2018-03-14T12:59:21.839Z,15.07
2018-03-14T13:01:49.339Z,9.17
2018-03-14T13:04:16.819Z,10.13
2018-03-14T13:06:44.339Z,14.80
2018-03-14T13:09:11.768Z,10.23
2018-03-14T13:11:40.033Z,11.30
2018-03-14T13:14:07.517Z,79.57
2018-03-14T13:16:34.982Z,39.37
2018-03-14T13:19:02.465Z,16.47
2018-03-14T13:21:29.971Z,9.63
2018-03-14T13:23:58.213Z,8.97
2018-03-14T13:26:25.680Z,10.23
2018-03-14T13:28:53.221Z,10.47
2018-03-14T13:31:20.704Z,12.40
2018-03-14T13:33:48.185Z,10.80
2018-03-14T13:36:15.655Z,11.00
2018-03-14T13:38:43.120Z,11.27
2018-03-14T13:41:11.432Z,11.27
2018-03-14T13:43:38.900Z,11.50
2018-03-14T13:46:06.370Z,12.80
2018-03-14T13:48:34.638Z,11.23
2018-03-14T13:51:02.136Z,11.33
2018-03-14T13:53:29.619Z,17.70
2018-03-14T13:55:57.140Z,20.87
2018-03-14T13:58:24.677Z,14.27
2018-03-14T14:00:52.129Z,15.97
2018-03-14T14:03:19.653Z,13.53
2018-03-14T14:05:47.136Z,10.67
2018-03-14T14:08:14.620Z,17.13
2018-03-14T14:10:42.115Z,13.67
2018-03-14T14:13:09.677Z,15.63
2018-03-14T14:15:37.153Z,14.53
2018-03-14T14:18:04.622Z,10.27
2018-03-14T14:20:32.079Z,10.97
2018-03-14T14:22:59.599Z,12.33
2018-03-14T14:25:27.068Z,11.70
2018-03-14T14:27:54.548Z,10.83
2018-03-14T14:30:22.010Z,12.73
2018-03-14T14:32:49.486Z,10.67
2018-03-14T14:35:16.951Z,11.47
2018-03-14T14:37:45.200Z,14.97
2018-03-14T14:40:12.663Z,12.07
2018-03-14T14:42:40.123Z,10.77
2018-03-14T14:45:07.580Z,12.93
2018-03-14T14:47:35.109Z,12.77
2018-03-14T14:50:03.358Z,13.03
2018-03-14T14:52:30.817Z,11.60
2018-03-14T14:54:58.322Z,12.43
2018-03-14T14:57:25.775Z,11.90
2018-03-14T14:59:53.243Z,15.10
2018-03-14T15:02:20.704Z,10.87
2018-03-14T15:04:48.175Z,15.60
2018-03-14T15:07:16.441Z,11.23
2018-03-14T15:09:43.918Z,10.43
2018-03-14T15:12:11.393Z,11.43
2018-03-14T15:14:38.868Z,9.53
2018-03-14T15:17:06.334Z,9.77
2018-03-14T15:19:33.801Z,8.77
2018-03-14T15:22:01.265Z,10.57
2018-03-14T15:24:28.747Z,8.73
2018-03-14T15:26:56.211Z,10.80
2018-03-14T15:29:23.696Z,14.27
2018-03-14T15:31:51.167Z,13.37
2018-03-14T15:34:18.628Z,10.80
2018-03-14T15:36:46.102Z,10.13
2018-03-14T15:39:13.576Z,12.13
2018-03-14T15:41:41.042Z,11.97
2018-03-14T15:44:08.501Z,9.83
2018-03-14T15:46:35.976Z,8.73
2018-03-14T15:49:03.451Z,11.67
2018-03-14T15:51:30.918Z,9.87
2018-03-14T15:53:58.397Z,8.90
2018-03-14T15:56:25.880Z,12.03
2018-03-14T15:58:53.345Z,16.67
2018-03-14T16:01:21.832Z,11.80
2018-03-14T16:03:49.291Z,15.47
2018-03-14T16:06:16.766Z,13.97
2018-03-14T16:08:44.234Z,12.07
2018-03-14T16:11:11.741Z,13.17
2018-03-14T16:13:39.214Z,13.57
2018-03-14T16:16:06.671Z,16.63
2018-03-14T16:18:34.143Z,18.07
2018-03-14T16:21:01.610Z,14.07
2018-03-14T16:23:29.113Z,18.57
2018-03-14T16:25:56.579Z,13.43
2018-03-14T16:28:24.097Z,14.60
2018-03-14T16:30:51.555Z,11.53
2018-03-14T16:33:19.045Z,15.60
2018-03-14T16:35:46.507Z,11.43
2018-03-14T16:38:13.993Z,10.47
2018-03-14T16:40:41.453Z,11.23
2018-03-14T16:43:08.931Z,11.60
2018-03-14T16:45:36.399Z,11.70
2018-03-14T16:48:03.879Z,10.73
2018-03-14T16:50:31.414Z,12.90
2018-03-14T16:52:58.871Z,12.87
2018-03-14T16:55:26.348Z,12.37
2018-03-14T16:57:53.814Z,18.93
2018-03-14T17:00:21.280Z,11.73
2018-03-14T17:02:48.744Z,13.70
2018-03-14T17:05:16.236Z,15.80
2018-03-14T17:07:43.703Z,12.63
2018-03-14T17:10:11.233Z,13.37
2018-03-14T17:12:38.656Z,13.17
2018-03-14T17:15:06.119Z,18.53
2018-03-14T17:17:33.588Z,14.30
2018-03-14T17:20:01.063Z,19.40
2018-03-14T17:22:28.533Z,14.77
2018-03-14T17:24:56.016Z,16.17
2018-03-14T17:27:23.665Z,19.70
2018-03-14T17:29:51.151Z,16.33
2018-03-14T17:32:18.626Z,21.47
2018-03-14T17:34:46.087Z,18.80
2018-03-14T17:37:13.604Z,17.90
2018-03-14T17:39:41.079Z,20.70
2018-03-14T17:42:08.571Z,18.60
2018-03-14T17:44:36.031Z,25.27
2018-03-14T17:47:03.505Z,17.40
2018-03-14T17:49:30.962Z,20.27
2018-03-14T17:51:58.431Z,19.43
2018-03-14T17:54:25.900Z,22.33
2018-03-14T17:56:53.380Z,20.07
2018-03-14T17:59:20.911Z,19.17
2018-03-14T18:01:48.380Z,17.20
2018-03-14T18:04:15.879Z,20.97
2018-03-14T18:06:43.371Z,18.60
2018-03-14T18:09:10.840Z,20.10
2018-03-14T18:11:38.338Z,26.60
2018-03-14T18:14:05.875Z,21.87
2018-03-14T18:16:33.345Z,22.80
2018-03-14T18:19:00.815Z,20.83
2018-03-14T18:21:28.315Z,20.33
2018-03-14T18:23:55.785Z,20.00
2018-03-14T18:26:23.255Z,21.27
2018-03-14T18:28:50.743Z,23.83
2018-03-14T18:31:18.212Z,22.53
2018-03-14T18:33:45.679Z,18.93
2018-03-14T18:36:13.144Z,19.87
2018-03-14T18:38:41.404Z,21.90
2018-03-14T18:41:08.913Z,29.87
2018-03-14T18:43:36.382Z,29.80
2018-03-14T18:46:03.847Z,22.93
2018-03-14T18:48:31.339Z,28.23
2018-03-14T18:50:58.816Z,22.20
2018-03-14T18:53:26.296Z,21.67
2018-03-14T18:55:53.773Z,22.83
2018-03-14T18:58:21.259Z,23.50
2018-03-14T19:00:48.786Z,21.77
2018-03-14T19:03:16.220Z,21.03
2018-03-14T19:05:43.691Z,19.77
2018-03-14T19:08:11.195Z,17.77
2018-03-14T19:10:38.684Z,20.80
2018-03-14T19:13:06.164Z,19.80
2018-03-14T19:15:33.667Z,22.70
2018-03-14T19:18:01.139Z,21.27
2018-03-14T19:20:28.605Z,24.00
2018-03-14T19:22:56.074Z,21.47
2018-03-14T19:25:23.547Z,27.47
2018-03-14T19:27:51.023Z,27.80
2018-03-14T19:30:18.489Z,21.80
2018-03-14T19:32:45.965Z,27.17
2018-03-14T19:35:13.440Z,26.07
2018-03-14T19:37:40.895Z,27.13
2018-03-14T19:40:08.383Z,23.03
2018-03-14T19:42:35.863Z,21.60
2018-03-14T19:45:03.367Z,22.07
2018-03-14T19:47:31.624Z,21.20
2018-03-14T19:49:59.111Z,27.13
2018-03-14T19:52:26.611Z,27.65
2018-03-14T19:54:54.071Z,23.87
2018-03-14T19:57:21.556Z,25.77
2018-03-14T19:59:49.016Z,30.43
2018-03-14T20:02:16.491Z,23.83
2018-03-14T20:04:44.728Z,25.67
2018-03-14T20:07:12.269Z,26.03
2018-03-14T20:09:39.706Z,21.33
2018-03-14T20:12:07.194Z,27.43
2018-03-14T20:14:34.656Z,27.50
2018-03-14T20:17:02.144Z,25.70
2018-03-14T20:19:30.375Z,34.77
2018-03-14T20:21:57.843Z,30.30
2018-03-14T20:24:25.323Z,29.23
2018-03-14T20:26:52.810Z,26.33
2018-03-14T20:29:20.384Z,30.67
2018-03-14T20:31:47.859Z,25.50
2018-03-14T20:34:15.331Z,30.93
2018-03-14T20:36:42.791Z,30.87
2018-03-14T20:39:10.274Z,30.20
2018-03-14T20:41:37.755Z,29.83
2018-03-14T20:44:05.250Z,28.00
2018-03-14T20:46:32.706Z,27.30
2018-03-14T20:49:00.183Z,27.87
2018-03-14T20:51:27.659Z,25.63
2018-03-14T20:53:55.136Z,27.77
2018-03-14T20:56:22.604Z,29.40
2018-03-14T20:58:50.080Z,29.70
2018-03-14T21:01:17.548Z,29.40
2018-03-14T21:03:45.023Z,24.57
2018-03-14T21:06:12.489Z,76.37
2018-03-14T21:08:39.950Z,50.17
2018-03-14T21:11:07.419Z,51.20
2018-03-14T21:13:35.669Z,57.70
2018-03-14T21:16:04.904Z,59.63
2018-03-14T21:18:32.382Z,42.73
2018-03-14T21:20:59.852Z,32.40
2018-03-14T21:23:27.336Z,32.93
2018-03-14T21:25:54.843Z,30.40
2018-03-14T21:28:22.285Z,31.63
2018-03-14T21:30:49.789Z,40.87
2018-03-14T21:33:17.254Z,34.67
2018-03-14T21:35:44.739Z,66.83
2018-03-14T21:38:12.984Z,44.53
2018-03-14T21:40:40.459Z,25.77
2018-03-14T21:43:07.923Z,27.43
2018-03-14T21:45:35.394Z,30.20
2018-03-14T21:48:02.857Z,30.33
2018-03-14T21:50:30.323Z,49.67
2018-03-14T21:52:57.849Z,49.87
2018-03-14T21:55:40.833Z,30.43
2018-03-14T21:58:08.303Z,27.85
2018-03-14T22:00:35.783Z,25.73
2018-03-14T22:03:03.243Z,29.43
2018-03-14T22:05:30.719Z,24.37
2018-03-14T22:07:58.245Z,26.90
2018-03-14T22:10:25.655Z,25.37
2018-03-14T22:12:53.140Z,28.17
2018-03-14T22:15:20.603Z,24.50
2018-03-14T22:17:48.089Z,30.83
2018-03-14T22:20:15.540Z,23.57
2018-03-14T22:22:43.011Z,28.50
2018-03-14T22:25:10.466Z,27.27
2018-03-14T22:27:37.957Z,28.87
2018-03-14T22:30:05.410Z,26.70
2018-03-14T22:32:32.891Z,26.73
2018-03-14T22:35:01.119Z,25.00
2018-03-14T22:37:28.611Z,25.47
2018-03-14T22:39:56.087Z,27.50
2018-03-14T22:42:23.548Z,24.80
2018-03-14T22:44:51.020Z,29.40
2018-03-14T22:47:18.480Z,31.60
2018-03-14T22:49:45.968Z,29.60
2018-03-14T22:52:14.206Z,27.23
2018-03-14T22:54:41.681Z,34.93
2018-03-14T22:57:09.152Z,28.57
2018-03-14T22:59:36.632Z,31.70
2018-03-14T23:02:04.091Z,36.83
2018-03-14T23:04:31.563Z,28.60
2018-03-14T23:06:59.030Z,27.57
2018-03-14T23:09:26.511Z,32.93
2018-03-14T23:11:53.966Z,28.60
2018-03-14T23:14:21.450Z,24.80
2018-03-14T23:16:48.908Z,30.37
2018-03-14T23:19:17.138Z,26.57
2018-03-14T23:21:44.599Z,27.93
2018-03-14T23:24:12.831Z,28.20
2018-03-14T23:26:41.063Z,30.10
2018-03-14T23:29:09.291Z,29.03
2018-03-14T23:31:36.757Z,34.47
2018-03-14T23:34:04.217Z,30.67
2018-03-14T23:36:31.687Z,29.43
2018-03-14T23:38:59.166Z,28.63
2018-03-14T23:41:26.626Z,26.90
2018-03-14T23:43:54.144Z,32.40
2018-03-14T23:46:21.614Z,26.43
2018-03-14T23:48:49.072Z,30.47
2018-03-14T23:51:16.549Z,25.23
2018-03-14T23:53:44.011Z,25.60
2018-03-14T23:56:11.467Z,28.27
2018-03-14T23:58:38.936Z,27.13
